Time;durP1;ratioP1;P1;durP2;ratioP2;P2;SDS_P1;SDS_P2;PMS_P1;PMS_P2;Temp;Humidity;BMP_temperature;BMP_pressure;BME280_temperature;BME280_humidity;BME280_pressure;Samples;Min_cycle;Max_cycle;Signal;HPM_P1;HPM_P2
2024/02/22 00:00:58;;;;;;;;;;;;;;;;;;2219591;66;1972;-21
2024/02/22 00:03:28;;;;;;;;;;;;;;;;;;2219062;66;2346;-20
2024/02/22 00:05:58;;;;;;;;;;;;;;;;;;2216287;66;1930;-20
2024/02/22 00:08:29;;;;;;;;;;;;;;;;;;2219139;66;2020;-20
2024/02/22 00:11:00;;;;;;;;;;;;;;;;;;2215777;58;2111;-20
2024/02/22 00:13:37;;;;;;;;;;;;;;;;;;2219199;58;1762;-20
2024/02/22 00:16:08;;;;;;;;;;;;;;;;;;2214860;66;2233;-20
2024/02/22 00:18:41;;;;;;;;;;;;;;;;;;2219290;66;1911;-20
2024/02/22 00:21:13;;;;;;;;;;;;;;;;;;2218707;59;2798;-20
2024/02/22 00:23:49;;;;;;;;;;;;;;;;;;2220004;66;2642;-20
2024/02/22 00:26:21;;;;;;;;;;;;;;;;;;2217875;66;2467;-20
2024/02/22 00:28:51;;;;;;;;;;;;;;;;;;2219153;66;2658;-20
2024/02/22 00:31:21;;;;;;;;;;;;;;;;;;2219062;66;2031;-20
2024/02/22 00:33:52;;;;;;;;;;;;;;;;;;2219758;66;1982;-20
2024/02/22 00:36:22;;;;;;;;;;;;;;;;;;2219299;66;2770;-20
2024/02/22 00:38:53;;;;;;;;;;;;;;;;;;2221156;58;3065;-20
2024/02/22 00:41:23;;;;;;;;;;;;;;;;;;2219021;58;3483;-21
2024/02/22 00:43:53;;;;;;;;;;;;;;;;;;2220034;66;2764;-20
2024/02/22 00:46:25;;;;;;;;;;;;;;;;;;2218997;58;3317;-20
2024/02/22 00:48:55;;;;;;;;;;;;;;;;;;2220161;66;2897;-20
2024/02/22 00:51:32;;;;;;;;;;;;;;;;;;2219220;66;2892;-20
2024/02/22 00:54:04;;;;;;;;;;;;;;;;;;2220202;66;2852;-20
2024/02/22 00:56:34;;;;;;;;;;;;;;;;;;2219455;59;2626;-20
2024/02/22 00:59:06;;;;;;;;;;;;;;;;;;2216276;59;2802;-21
2024/02/22 01:01:38;;;;;;;;;;;;;;;;;;2220444;66;2679;-20
2024/02/22 01:04:10;;;;;;;;;;;;;;;;;;2216646;58;2533;-26
2024/02/22 01:06:42;;;;;;;;;;;;;;;;;;2218527;58;2033;-20
2024/02/22 01:09:15;;;;;;;;;;;;;;;;;;2219299;58;1968;-20
2024/02/22 01:11:51;;;;;;;;;;;;;;;;;;2216847;58;2563;-20
2024/02/22 01:14:21;;;;;;;;;;;;;;;;;;2219784;58;2036;-20
2024/02/22 01:16:51;;;;;;;;;;;;;;;;;;2212738;59;1895;-20
2024/02/22 01:19:22;;;;;;;;;;;;;;;;;;2219330;58;1885;-21
2024/02/22 01:21:52;;;;;;;;;;;;;;;;;;2220575;59;1807;-20
2024/02/22 01:24:26;;;;;;;;;;;;;;;;;;2214700;66;2612;-20
2024/02/22 01:26:56;;;;;;;;;;;;;;;;;;2219770;66;3104;-20
2024/02/22 01:29:27;;;;;;;;;;;;;;;;;;2218701;66;1985;-20
2024/02/22 01:31:57;;;;;;;;;;;;;;;;;;2216968;66;2668;-20
2024/02/22 01:34:29;;;;;;;;;;;;;;;;;;2219558;66;2690;-20
2024/02/22 01:37:00;;;;;;;;;;;;;;;;;;2219528;66;3304;-20
2024/02/22 01:39:32;;;;;;;;;;;;;;;;;;2215256;58;2045;-20
2024/02/22 01:42:10;;;;;;;;;;;;;;;;;;2212783;66;1946;-20
2024/02/22 01:44:41;;;;;;;;;;;;;;;;;;2219184;58;1904;-20
2024/02/22 01:47:15;;;;;;;;;;;;;;;;;;2218279;58;2806;-20
2024/02/22 01:49:46;;;;;;;;;;;;;;;;;;2215175;66;1972;-20
2024/02/22 01:52:18;;;;;;;;;;;;;;;;;;2219286;66;1922;-20
2024/02/22 01:54:49;;;;;;;;;;;;;;;;;;2220924;58;2515;-20
2024/02/22 01:57:19;;;;;;;;;;;;;;;;;;2219383;66;1965;-20
2024/02/22 02:00:00;;;;;;;;;;;;;;;;;;2220214;66;2051;-20
2024/02/22 02:02:31;;;;;;;;;;;;;;;;;;2218105;58;2853;-20
2024/02/22 02:05:01;;;;;;;;;;;;;;;;;;2217061;66;3041;-20
2024/02/22 02:07:34;;;;;;;;;;;;;;;;;;2215258;66;2250;-20
2024/02/22 02:10:05;;;;;;;;;;;;;;;;;;2219083;58;2730;-20
2024/02/22 02:12:37;;;;;;;;;;;;;;;;;;2215103;66;2210;-20
2024/02/22 02:15:08;;;;;;;;;;;;;;;;;;2219397;58;1901;-20
2024/02/22 02:17:41;;;;;;;;;;;;;;;;;;2219980;66;2532;-20
2024/02/22 02:20:18;;;;;;;;;;;;;;;;;;2219860;66;1890;-20
2024/02/22 02:22:49;;;;;;;;;;;;;;;;;;2215971;58;2742;-20
2024/02/22 02:25:19;;;;;;;;;;;;;;;;;;2219781;58;1805;-20
2024/02/22 02:27:50;;;;;;;;;;;;;;;;;;2218991;58;2499;-20
2024/02/22 02:30:20;;;;;;;;;;;;;;;;;;2219242;58;2396;-20
2024/02/22 02:32:50;;;;;;;;;;;;;;;;;;2217701;66;2330;-20
2024/02/22 02:35:24;;;;;;;;;;;;;;;;;;2219734;58;1771;-20
2024/02/22 02:37:58;;;;;;;;;;;;;;;;;;2218397;66;2219;-20
2024/02/22 02:40:28;;;;;;;;;;;;;;;;;;2217927;58;2970;-20
2024/02/22 02:42:58;;;;;;;;;;;;;;;;;;2219362;66;1923;-20
2024/02/22 02:45:29;;;;;;;;;;;;;;;;;;2219141;58;2937;-20
2024/02/22 02:48:00;;;;;;;;;;;;;;;;;;2219287;66;2465;-20
2024/02/22 02:50:31;;;;;;;;;;;;;;;;;;2220697;66;1935;-20
2024/02/22 02:53:04;;;;;;;;;;;;;;;;;;2216886;66;1892;-20
2024/02/22 02:55:34;;;;;;;;;;;;;;;;;;2219361;66;1972;-20
2024/02/22 02:58:05;;;;;;;;;;;;;;;;;;2219432;66;1960;-20
2024/02/22 03:00:36;;;;;;;;;;;;;;;;;;2219163;58;1837;-20
2024/02/22 03:03:07;;;;;;;;;;;;;;;;;;2219550;58;2070;-20
2024/02/22 03:05:39;;;;;;;;;;;;;;;;;;2219651;66;2340;-20
2024/02/22 03:08:17;;;;;;;;;;;;;;;;;;2219911;59;1883;-20
2024/02/22 03:10:48;;;;;;;;;;;;;;;;;;2220310;66;2140;-20
2024/02/22 03:13:21;;;;;;;;;;;;;;;;;;2218636;59;2058;-20
2024/02/22 03:15:54;;;;;;;;;;;;;;;;;;2219489;66;1805;-20
2024/02/22 03:18:25;;;;;;;;;;;;;;;;;;2217766;66;2835;-20
2024/02/22 03:20:56;;;;;;;;;;;;;;;;;;2219766;66;1812;-20
2024/02/22 03:23:28;;;;;;;;;;;;;;;;;;2220216;59;1804;-20
2024/02/22 03:25:58;;;;;;;;;;;;;;;;;;2218932;66;1990;-20
2024/02/22 03:28:29;;;;;;;;;;;;;;;;;;2217835;59;2503;-20
2024/02/22 03:31:01;;;;;;;;;;;;;;;;;;2219290;66;2377;-20
2024/02/22 03:33:37;;;;;;;;;;;;;;;;;;2215582;66;1858;-20
2024/02/22 03:36:10;;;;;;;;;;;;;;;;;;2221242;66;2936;-20
2024/02/22 03:38:41;;;;;;;;;;;;;;;;;;2219549;59;2398;-20
2024/02/22 03:41:21;;;;;;;;;;;;;;;;;;2216288;58;2446;-20
2024/02/22 03:43:52;;;;;;;;;;;;;;;;;;2215265;66;2811;-20
2024/02/22 03:46:25;;;;;;;;;;;;;;;;;;2215607;58;1959;-20
2024/02/22 03:48:55;;;;;;;;;;;;;;;;;;2219971;66;2599;-20
2024/02/22 03:51:26;;;;;;;;;;;;;;;;;;2215972;59;1947;-20
2024/02/22 03:54:00;;;;;;;;;;;;;;;;;;2217131;59;2075;-20
2024/02/22 03:56:34;;;;;;;;;;;;;;;;;;2218852;66;2402;-20
2024/02/22 03:59:06;;;;;;;;;;;;;;;;;;2219363;66;2588;-20
2024/02/22 04:01:37;;;;;;;;;;;;;;;;;;2215071;59;2686;-20
2024/02/22 04:04:10;;;;;;;;;;;;;;;;;;2219581;58;2012;-20
2024/02/22 04:06:46;;;;;;;;;;;;;;;;;;2218582;66;2438;-20
2024/02/22 04:09:20;;;;;;;;;;;;;;;;;;2219113;66;1993;-20
2024/02/22 04:11:51;;;;;;;;;;;;;;;;;;2220608;58;2979;-20
2024/02/22 04:14:21;;;;;;;;;;;;;;;;;;2215516;66;2648;-20
2024/02/22 04:16:54;;;;;;;;;;;;;;;;;;2219365;59;1866;-20
2024/02/22 04:19:25;;;;;;;;;;;;;;;;;;2219544;66;2620;-20
2024/02/22 04:21:58;;;;;;;;;;;;;;;;;;2214781;59;2467;-20
2024/02/22 04:24:29;;;;;;;;;;;;;;;;;;2216394;66;1905;-20
2024/02/22 04:26:59;;;;;;;;;;;;;;;;;;2217772;60;1897;-20
2024/02/22 04:29:30;;;;;;;;;;;;;;;;;;2218232;66;2525;-20
2024/02/22 04:32:00;;;;;;;;;;;;;;;;;;2218843;66;2915;-20
2024/02/22 04:34:31;;;;;;;;;;;;;;;;;;2216062;66;2516;-20
2024/02/22 04:37:01;;;;;;;;;;;;;;;;;;2219031;59;1787;-20
2024/02/22 04:39:32;;;;;;;;;;;;;;;;;;2219462;58;2822;-20
2024/02/22 04:42:02;;;;;;;;;;;;;;;;;;2220241;63;2888;-20
2024/02/22 04:44:33;;;;;;;;;;;;;;;;;;2213849;58;1948;-20
2024/02/22 04:47:03;;;;;;;;;;;;;;;;;;2215507;66;2064;-20
2024/02/22 04:49:35;;;;;;;;;;;;;;;;;;2216778;66;1938;-20
2024/02/22 04:52:05;;;;;;;;;;;;;;;;;;2217095;66;1815;-20
2024/02/22 04:54:41;;;;;;;;;;;;;;;;;;2217121;66;1843;-20
2024/02/22 04:57:12;;;;;;;;;;;;;;;;;;2216641;66;1812;-20
2024/02/22 04:59:42;;;;;;;;;;;;;;;;;;2215604;66;1877;-20
2024/02/22 05:02:14;;;;;;;;;;;;;;;;;;2216932;66;1773;-20
2024/02/22 05:04:44;;;;;;;;;;;;;;;;;;2218926;59;2755;-20
2024/02/22 05:07:15;;;;;;;;;;;;;;;;;;2216330;66;1774;-20
2024/02/22 05:09:45;;;;;;;;;;;;;;;;;;2220105;58;2696;-20
2024/02/22 05:12:16;;;;;;;;;;;;;;;;;;2219650;66;2693;-21
2024/02/22 05:14:48;;;;;;;;;;;;;;;;;;2216439;58;2605;-21
2024/02/22 05:17:21;;;;;;;;;;;;;;;;;;2219502;66;1776;-20
2024/02/22 05:19:51;;;;;;;;;;;;;;;;;;2211685;66;1930;-20
2024/02/22 05:22:21;;;;;;;;;;;;;;;;;;2212444;66;2840;-20
2024/02/22 05:24:53;;;;;;;;;;;;;;;;;;2219867;66;2051;-29
2024/02/22 05:27:23;;;;;;;;;;;;;;;;;;2212550;66;1863;-20
2024/02/22 05:29:54;;;;;;;;;;;;;;;;;;2216942;66;2028;-20
2024/02/22 05:32:24;;;;;;;;;;;;;;;;;;2219344;66;1776;-20
2024/02/22 05:34:57;;;;;;;;;;;;;;;;;;2219728;66;2021;-20
2024/02/22 05:37:28;;;;;;;;;;;;;;;;;;2215325;66;2299;-20
2024/02/22 05:39:58;;;;;;;;;;;;;;;;;;2220597;66;2958;-20
2024/02/22 05:42:31;;;;;;;;;;;;;;;;;;2218871;66;1778;-20
2024/02/22 05:45:02;;;;;;;;;;;;;;;;;;2216983;58;2742;-20
2024/02/22 05:47:32;;;;;;;;;;;;;;;;;;2219071;66;1855;-20
2024/02/22 05:50:03;;;;;;;;;;;;;;;;;;2220037;59;2540;-21
2024/02/22 05:52:36;;;;;;;;;;;;;;;;;;2220167;66;3255;-20
2024/02/22 05:55:06;;;;;;;;;;;;;;;;;;2220178;66;1768;-20
2024/02/22 05:57:36;;;;;;;;;;;;;;;;;;2215651;66;2471;-20
2024/02/22 06:00:07;;;;;;;;;;;;;;;;;;2219378;66;2087;-20
2024/02/22 06:02:38;;;;;;;;;;;;;;;;;;2218576;66;2929;-20
2024/02/22 06:05:08;;;;;;;;;;;;;;;;;;2219267;59;2233;-20
2024/02/22 06:07:39;;;;;;;;;;;;;;;;;;2216763;66;2838;-20
2024/02/22 06:10:10;;;;;;;;;;;;;;;;;;2219261;58;1965;-20
2024/02/22 06:12:44;;;;;;;;;;;;;;;;;;2219619;66;2784;-20
2024/02/22 06:15:14;;;;;;;;;;;;;;;;;;2220727;58;1834;-20
2024/02/22 06:17:47;;;;;;;;;;;;;;;;;;2213834;66;2031;-21
2024/02/22 06:20:18;;;;;;;;;;;;;;;;;;2221001;66;2052;-21
2024/02/22 06:22:48;;;;;;;;;;;;;;;;;;2220026;59;2848;-21
2024/02/22 06:25:19;;;;;;;;;;;;;;;;;;2222062;66;1960;-21
2024/02/22 06:27:56;;;;;;;;;;;;;;;;;;2220535;59;1790;-21
2024/02/22 06:30:26;;;;;;;;;;;;;;;;;;2221006;66;2552;-21
2024/02/22 06:33:01;;;;;;;;;;;;;;;;;;2221795;66;2889;-21
2024/02/22 06:35:32;;;;;;;;;;;;;;;;;;2220040;66;2064;-21
2024/02/22 06:38:02;;;;;;;;;;;;;;;;;;2220988;58;2649;-21
2024/02/22 06:40:33;;;;;;;;;;;;;;;;;;2216418;58;3595;-21
2024/02/22 06:43:05;;;;;;;;;;;;;;;;;;2218636;66;2013;-21
2024/02/22 06:45:35;;;;;;;;;;;;;;;;;;2215945;58;2850;-21
2024/02/22 06:48:07;;;;;;;;;;;;;;;;;;2219800;66;1861;-21
2024/02/22 06:50:38;;;;;;;;;;;;;;;;;;2217284;66;2468;-21
2024/02/22 06:53:14;;;;;;;;;;;;;;;;;;2220219;66;1865;-21
2024/02/22 06:55:44;;;;;;;;;;;;;;;;;;2220552;66;1913;-21
2024/02/22 06:58:19;;;;;;;;;;;;;;;;;;2217072;59;2328;-21
2024/02/22 07:00:49;;;;;;;;;;;;;;;;;;2217364;66;1881;-21
2024/02/22 07:03:21;;;;;;;;;;;;;;;;;;2218358;58;2112;-21
2024/02/22 07:05:51;;;;;;;;;;;;;;;;;;2216031;59;1886;-21
2024/02/22 07:08:21;;;;;;;;;;;;;;;;;;2219903;66;2779;-21
2024/02/22 07:10:51;;;;;;;;;;;;;;;;;;2216835;58;2347;-21
2024/02/22 07:13:22;;;;;;;;;;;;;;;;;;2220535;58;2919;-21
2024/02/22 07:15:55;;;;;;;;;;;;;;;;;;2220292;66;2679;-21
2024/02/22 07:18:26;;;;;;;;;;;;;;;;;;2212348;66;2143;-21
2024/02/22 07:20:59;;;;;;;;;;;;;;;;;;2219279;66;1776;-21
2024/02/22 07:23:29;;;;;;;;;;;;;;;;;;2218364;66;2303;-21
2024/02/22 07:26:00;;;;;;;;;;;;;;;;;;2215805;66;2807;-20
2024/02/22 07:28:30;;;;;;;;;;;;;;;;;;2219337;66;3188;-21
2024/02/22 07:31:00;;;;;;;;;;;;;;;;;;2220209;66;2745;-21
2024/02/22 07:33:35;;;;;;;;;;;;;;;;;;2219398;66;1752;-21
2024/02/22 07:36:06;;;;;;;;;;;;;;;;;;2220508;66;2555;-20
2024/02/22 07:38:36;;;;;;;;;;;;;;;;;;2219616;66;2801;-21
2024/02/22 07:41:08;;;;;;;;;;;;;;;;;;2220636;66;2202;-21
2024/02/22 07:43:41;;;;;;;;;;;;;;;;;;2218650;58;2604;-21
2024/02/22 07:46:14;;;;;;;;;;;;;;;;;;2220189;58;2411;-21
2024/02/22 07:48:45;;;;;;;;;;;;;;;;;;2219166;66;2435;-21
2024/02/22 07:51:16;;;;;;;;;;;;;;;;;;2214904;59;2840;-21
2024/02/22 07:53:48;;;;;;;;;;;;;;;;;;2218912;58;2937;-20
2024/02/22 07:56:18;;;;;;;;;;;;;;;;;;2219214;66;2644;-20
2024/02/22 07:58:50;;;;;;;;;;;;;;;;;;2219226;58;2579;-21
2024/02/22 08:01:20;;;;;;;;;;;;;;;;;;2220098;66;2708;-21
2024/02/22 08:03:53;;;;;;;;;;;;;;;;;;2216127;58;3762;-21
2024/02/22 08:06:26;;;;;;;;;;;;;;;;;;2218935;59;4458;-21
2024/02/22 08:08:59;;;;;;;;;;;;;;;;;;2219150;66;2841;-21
2024/02/22 08:11:30;;;;;;;;;;;;;;;;;;2219431;58;2427;-21
2024/02/22 08:14:00;;;;;;;;;;;;;;;;;;2220134;58;2110;-20
2024/02/22 08:16:32;;;;;;;;;;;;;;;;;;2218922;58;2373;-21
2024/02/22 08:19:04;;;;;;;;;;;;;;;;;;2219399;58;2691;-21
2024/02/22 08:21:36;;;;;;;;;;;;;;;;;;2219550;58;2526;-21
2024/02/22 08:24:10;;;;;;;;;;;;;;;;;;2219400;58;2777;-20
2024/02/22 08:26:41;;;;;;;;;;;;;;;;;;2219471;66;2988;-21
2024/02/22 08:29:13;;;;;;;;;;;;;;;;;;2219627;58;2534;-20
2024/02/22 08:31:43;;;;;;;;;;;;;;;;;;2219632;58;2494;-21
2024/02/22 08:34:14;;;;;;;;;;;;;;;;;;2216419;58;2267;-21
2024/02/22 08:36:46;;;;;;;;;;;;;;;;;;2218552;58;2326;-20
2024/02/22 08:39:18;;;;;;;;;;;;;;;;;;2216146;58;2962;-20
2024/02/22 08:41:48;;;;;;;;;;;;;;;;;;2218915;58;2465;-21
2024/02/22 08:44:18;;;;;;;;;;;;;;;;;;2219145;58;2927;-21
2024/02/22 08:46:49;;;;;;;;;;;;;;;;;;2218631;58;2557;-21
2024/02/22 08:49:19;;;;;;;;;;;;;;;;;;2216351;59;2598;-21
2024/02/22 08:51:51;;;;;;;;;;;;;;;;;;2215816;58;2120;-21
2024/02/22 08:54:21;;;;;;;;;;;;;;;;;;2220408;58;2532;-21
2024/02/22 08:56:53;;;;;;;;;;;;;;;;;;2220376;66;2689;-21
2024/02/22 08:59:23;;;;;;;;;;;;;;;;;;2213996;58;2189;-21
2024/02/22 09:01:54;;;;;;;;;;;;;;;;;;2215838;58;2579;-21
2024/02/22 09:04:27;;;;;;;;;;;;;;;;;;2220443;58;2256;-21
2024/02/22 09:07:00;;;;;;;;;;;;;;;;;;2218824;58;2703;-20
2024/02/22 09:09:30;;;;;;;;;;;;;;;;;;2219940;66;1982;-21
2024/02/22 09:12:00;;;;;;;;;;;;;;;;;;2219584;66;2074;-20
2024/02/22 09:14:30;;;;;;;;;;;;;;;;;;2220666;58;1884;-20
2024/02/22 09:17:04;;;;;;;;;;;;;;;;;;2218277;58;2396;-20
2024/02/22 09:19:37;;;;;;;;;;;;;;;;;;2216511;58;1728;-20
2024/02/22 09:22:13;;;;;;;;;;;;;;;;;;2218907;66;1981;-21
2024/02/22 09:24:48;;;;;;;;;;;;;;;;;;2219986;66;2454;-20
2024/02/22 09:27:18;;;;;;;;;;;;;;;;;;2219283;66;1848;-20
2024/02/22 09:29:50;;;;;;;;;;;;;;;;;;2216553;66;2090;-20
2024/02/22 09:32:20;;;;;;;;;;;;;;;;;;2220164;66;2472;-20
2024/02/22 09:34:51;;;;;;;;;;;;;;;;;;2216694;66;2153;-20
2024/02/22 09:37:22;;;;;;;;;;;;;;;;;;2219585;59;2074;-20
2024/02/22 09:39:54;;;;;;;;;;;;;;;;;;2219688;58;3124;-20
2024/02/22 09:42:27;;;;;;;;;;;;;;;;;;2220086;66;1849;-20
2024/02/22 09:44:59;;;;;;;;;;;;;;;;;;2216420;58;2784;-20
2024/02/22 09:47:30;;;;;;;;;;;;;;;;;;2220574;58;2970;-20
2024/02/22 09:50:02;;;;;;;;;;;;;;;;;;2218686;58;1977;-20
2024/02/22 09:52:34;;;;;;;;;;;;;;;;;;2218757;58;2165;-20
2024/02/22 09:55:11;;;;;;;;;;;;;;;;;;2217997;66;3465;-20
2024/02/22 09:57:41;;;;;;;;;;;;;;;;;;2216655;58;2712;-20
2024/02/22 10:00:14;;;;;;;;;;;;;;;;;;2216542;58;1887;-20
2024/02/22 10:02:45;;;;;;;;;;;;;;;;;;2216204;66;2193;-20
2024/02/22 10:05:16;;;;;;;;;;;;;;;;;;2216086;66;1780;-20
2024/02/22 10:07:46;;;;;;;;;;;;;;;;;;2217916;66;2562;-20
2024/02/22 10:10:27;;;;;;;;;;;;;;;;;;2218338;66;3002;-20
2024/02/22 10:12:57;;;;;;;;;;;;;;;;;;2212368;59;2270;-20
2024/02/22 10:15:29;;;;;;;;;;;;;;;;;;2215322;58;1860;-20
2024/02/22 10:18:00;;;;;;;;;;;;;;;;;;2215866;66;1826;-20
2024/02/22 10:20:31;;;;;;;;;;;;;;;;;;2220000;66;3145;-20
2024/02/22 10:23:06;;;;;;;;;;;;;;;;;;2219622;66;2831;-21
2024/02/22 10:25:37;;;;;;;;;;;;;;;;;;2219405;59;2084;-20
2024/02/22 10:28:13;;;;;;;;;;;;;;;;;;2219316;66;2746;-20
2024/02/22 10:30:44;;;;;;;;;;;;;;;;;;2215453;66;2947;-20
2024/02/22 10:33:18;;;;;;;;;;;;;;;;;;2216952;66;2662;-20
2024/02/22 10:35:48;;;;;;;;;;;;;;;;;;2218541;66;1878;-20
2024/02/22 10:38:19;;;;;;;;;;;;;;;;;;2219677;66;2587;-20
2024/02/22 10:40:50;;;;;;;;;;;;;;;;;;2218719;58;2898;-20
2024/02/22 10:43:22;;;;;;;;;;;;;;;;;;2217572;66;3648;-20
2024/02/22 10:46:01;;;;;;;;;;;;;;;;;;2218672;58;3217;-20
2024/02/22 10:48:33;;;;;;;;;;;;;;;;;;2217974;66;1885;-20
2024/02/22 10:51:06;;;;;;;;;;;;;;;;;;2216775;66;2433;-20
2024/02/22 10:53:37;;;;;;;;;;;;;;;;;;2218430;58;2825;-20
2024/02/22 10:56:07;;;;;;;;;;;;;;;;;;2219187;58;2607;-20
2024/02/22 10:58:39;;;;;;;;;;;;;;;;;;2218551;58;2728;-20
2024/02/22 11:01:11;;;;;;;;;;;;;;;;;;2219157;58;2678;-20
2024/02/22 11:03:41;;;;;;;;;;;;;;;;;;2218905;58;2475;-20
2024/02/22 11:06:21;;;;;;;;;;;;;;;;;;2219895;66;3161;-20
2024/02/22 11:08:59;;;;;;;;;;;;;;;;;;2219183;58;2010;-20
2024/02/22 11:11:39;;;;;;;;;;;;;;;;;;2219736;66;2530;-20
2024/02/22 11:14:09;;;;;;;;;;;;;;;;;;2220044;58;3222;-20
2024/02/22 11:16:43;;;;;;;;;;;;;;;;;;2218100;66;1915;-20
2024/02/22 11:19:14;;;;;;;;;;;;;;;;;;2217343;66;4113;-20
2024/02/22 11:21:44;;;;;;;;;;;;;;;;;;2216871;58;2888;-20
2024/02/22 11:24:20;;;;;;;;;;;;;;;;;;2214963;66;2533;-20
2024/02/22 11:27:10;;;;;;;;;;;;;;;;;;2218829;66;2708;-20
2024/02/22 11:29:40;;;;;;;;;;;;;;;;;;2214893;66;3414;-20
2024/02/22 11:32:11;;;;;;;;;;;;;;;;;;2215712;66;1820;-20
2024/02/22 11:34:42;;;;;;;;;;;;;;;;;;2217460;66;2436;-20
2024/02/22 11:37:16;;;;;;;;;;;;;;;;;;2219157;66;2369;-20
2024/02/22 11:39:54;;;;;;;;;;;;;;;;;;2218201;58;2702;-20
2024/02/22 11:42:26;;;;;;;;;;;;;;;;;;2218277;66;1962;-18
2024/02/22 11:45:12;;;;;;;;;;;;;;;;;;2218824;58;1809;-18
2024/02/22 11:48:04;;;;;;;;;;;;;;;;;;2216154;66;1914;-18
2024/02/22 11:50:34;;;;;;;;;;;;;;;;;;2218140;66;1984;-18
2024/02/22 11:53:10;;;;;;;;;;;;;;;;;;2217565;66;2505;-18
2024/02/22 11:55:41;;;;;;;;;;;;;;;;;;2218484;58;3436;-18
2024/02/22 11:58:11;;;;;;;;;;;;;;;;;;2218377;66;2577;-18
2024/02/22 12:00:43;;;;;;;;;;;;;;;;;;2218955;58;3239;-18
2024/02/22 12:03:14;;;;;;;;;;;;;;;;;;2220416;58;1841;-18
2024/02/22 12:05:45;;;;;;;;;;;;;;;;;;2215982;59;2960;-18
2024/02/22 12:08:15;;;;;;;;;;;;;;;;;;2219818;66;3287;-19
2024/02/22 12:10:48;;;;;;;;;;;;;;;;;;2218238;58;2919;-19
2024/02/22 12:13:19;;;;;;;;;;;;;;;;;;2219157;58;2698;-19
2024/02/22 12:15:49;;;;;;;;;;;;;;;;;;2216732;58;3146;-19
2024/02/22 12:18:19;;;;;;;;;;;;;;;;;;2220029;58;2194;-19
2024/02/22 12:20:50;;;;;;;;;;;;;;;;;;2218651;66;1899;-19
2024/02/22 12:23:21;;;;;;;;;;;;;;;;;;2219763;66;2639;-19
2024/02/22 12:25:52;;;;;;;;;;;;;;;;;;2218810;66;2798;-19
2024/02/22 12:28:23;;;;;;;;;;;;;;;;;;2219763;66;2569;-19
2024/02/22 12:30:53;;;;;;;;;;;;;;;;;;2219090;66;3626;-19
2024/02/22 12:33:24;;;;;;;;;;;;;;;;;;2216988;58;3416;-20
2024/02/22 12:35:57;;;;;;;;;;;;;;;;;;2218647;66;1753;-19
2024/02/22 12:38:28;;;;;;;;;;;;;;;;;;2220432;66;2657;-19
2024/02/22 12:40:58;;;;;;;;;;;;;;;;;;2216169;59;2933;-19
2024/02/22 12:43:28;;;;;;;;;;;;;;;;;;2219769;58;3102;-19
2024/02/22 12:45:59;;;;;;;;;;;;;;;;;;2220528;58;1944;-19
2024/02/22 12:48:29;;;;;;;;;;;;;;;;;;2217558;58;1874;-20
2024/02/22 12:50:59;;;;;;;;;;;;;;;;;;2220434;59;2504;-19
2024/02/22 12:53:31;;;;;;;;;;;;;;;;;;2215499;58;2974;-19
2024/02/22 12:56:02;;;;;;;;;;;;;;;;;;2215874;66;1720;-19
2024/02/22 12:58:32;;;;;;;;;;;;;;;;;;2221265;66;2419;-19
2024/02/22 13:01:02;;;;;;;;;;;;;;;;;;2220088;59;1883;-19
2024/02/22 13:03:33;;;;;;;;;;;;;;;;;;2218982;58;2146;-19
2024/02/22 13:06:05;;;;;;;;;;;;;;;;;;2220037;66;3366;-19
2024/02/22 13:08:37;;;;;;;;;;;;;;;;;;2214691;58;2549;-19
2024/02/22 13:11:07;;;;;;;;;;;;;;;;;;2219913;66;1937;-19
2024/02/22 13:13:38;;;;;;;;;;;;;;;;;;2216691;58;3055;-19
2024/02/22 13:16:08;;;;;;;;;;;;;;;;;;2218896;58;2444;-19
2024/02/22 13:18:46;;;;;;;;;;;;;;;;;;2219338;58;1951;-19
2024/02/22 13:21:17;;;;;;;;;;;;;;;;;;2221240;66;3113;-19
2024/02/22 13:23:48;;;;;;;;;;;;;;;;;;2219531;58;2867;-19
2024/02/22 13:26:19;;;;;;;;;;;;;;;;;;2218765;66;2006;-19
2024/02/22 13:28:50;;;;;;;;;;;;;;;;;;2220375;58;2477;-20
2024/02/22 13:31:22;;;;;;;;;;;;;;;;;;2221408;58;1942;-19
2024/02/22 13:33:58;;;;;;;;;;;;;;;;;;2217056;66;2704;-19
2024/02/22 13:36:31;;;;;;;;;;;;;;;;;;2220378;58;2665;-19
2024/02/22 13:39:03;;;;;;;;;;;;;;;;;;2216547;58;2454;-20
2024/02/22 13:41:35;;;;;;;;;;;;;;;;;;2220793;66;1910;-20
2024/02/22 13:44:06;;;;;;;;;;;;;;;;;;2220607;58;2318;-20
2024/02/22 13:46:36;;;;;;;;;;;;;;;;;;2215184;59;3029;-20
2024/02/22 13:49:17;;;;;;;;;;;;;;;;;;2220706;66;1939;-19
2024/02/22 13:51:54;;;;;;;;;;;;;;;;;;2219107;66;1940;-19
2024/02/22 13:54:29;;;;;;;;;;;;;;;;;;2220610;58;2609;-19
2024/02/22 13:56:59;;;;;;;;;;;;;;;;;;2220080;58;1903;-19
2024/02/22 13:59:30;;;;;;;;;;;;;;;;;;2215842;66;1861;-19
2024/02/22 14:02:01;;;;;;;;;;;;;;;;;;2219675;66;2675;-19
2024/02/22 14:04:33;;;;;;;;;;;;;;;;;;2217499;58;2308;-22
2024/02/22 14:07:05;;;;;;;;;;;;;;;;;;2220855;66;1968;-22
2024/02/22 14:09:36;;;;;;;;;;;;;;;;;;2220106;66;3478;-22
2024/02/22 14:12:07;;;;;;;;;;;;;;;;;;2219353;58;1859;-22
2024/02/22 14:14:37;;;;;;;;;;;;;;;;;;2216558;58;2154;-23
2024/02/22 14:17:10;;;;;;;;;;;;;;;;;;2219616;66;2987;-23
2024/02/22 14:19:41;;;;;;;;;;;;;;;;;;2219846;58;1891;-22
2024/02/22 14:22:11;;;;;;;;;;;;;;;;;;2219620;59;1987;-23
2024/02/22 14:24:45;;;;;;;;;;;;;;;;;;2216211;59;2114;-23
2024/02/22 14:27:16;;;;;;;;;;;;;;;;;;2215097;66;2559;-23
2024/02/22 14:29:52;;;;;;;;;;;;;;;;;;2221270;66;2678;-22
2024/02/22 14:32:24;;;;;;;;;;;;;;;;;;2218193;58;3145;-22
2024/02/22 14:34:55;;;;;;;;;;;;;;;;;;2218415;58;2360;-22
2024/02/22 14:37:30;;;;;;;;;;;;;;;;;;2220313;58;2546;-23
2024/02/22 14:40:00;;;;;;;;;;;;;;;;;;2218926;58;2011;-23
2024/02/22 14:42:30;;;;;;;;;;;;;;;;;;2219785;58;1849;-23
2024/02/22 14:45:01;;;;;;;;;;;;;;;;;;2218999;58;2501;-23
2024/02/22 14:47:31;;;;;;;;;;;;;;;;;;2216591;66;3603;-22
2024/02/22 14:50:06;;;;;;;;;;;;;;;;;;2219482;58;2891;-23
2024/02/22 14:52:37;;;;;;;;;;;;;;;;;;2218625;58;2608;-22
2024/02/22 14:55:08;;;;;;;;;;;;;;;;;;2219578;66;1785;-23
2024/02/22 14:57:38;;;;;;;;;;;;;;;;;;2215515;59;2054;-24
2024/02/22 15:00:09;;;;;;;;;;;;;;;;;;2218710;66;2303;-23
2024/02/22 15:02:39;;;;;;;;;;;;;;;;;;2221015;58;2319;-23
2024/02/22 15:05:10;;;;;;;;;;;;;;;;;;2218595;58;2080;-23
2024/02/22 15:07:40;;;;;;;;;;;;;;;;;;2219206;66;1873;-24
2024/02/22 15:10:11;;;;;;;;;;;;;;;;;;2216151;58;2690;-23
2024/02/22 15:12:41;;;;;;;;;;;;;;;;;;2214036;66;2013;-23
2024/02/22 15:15:15;;;;;;;;;;;;;;;;;;2211445;59;2737;-23
2024/02/22 15:17:47;;;;;;;;;;;;;;;;;;2219345;58;1813;-23
2024/02/22 15:20:19;;;;;;;;;;;;;;;;;;2216193;66;3145;-22
2024/02/22 15:22:52;;;;;;;;;;;;;;;;;;2220241;66;2673;-22
2024/02/22 15:25:23;;;;;;;;;;;;;;;;;;2216604;59;2546;-23
2024/02/22 15:27:53;;;;;;;;;;;;;;;;;;2219025;66;2539;-23
2024/02/22 15:30:24;;;;;;;;;;;;;;;;;;2214581;66;2616;-23
2024/02/22 15:32:56;;;;;;;;;;;;;;;;;;2219291;58;2527;-24
2024/02/22 15:35:29;;;;;;;;;;;;;;;;;;2219328;58;2546;-23
2024/02/22 15:38:00;;;;;;;;;;;;;;;;;;2216170;66;2669;-24
2024/02/22 15:40:30;;;;;;;;;;;;;;;;;;2220788;58;2685;-22
2024/02/22 15:43:01;;;;;;;;;;;;;;;;;;2215611;66;2130;-24
2024/02/22 15:45:31;;;;;;;;;;;;;;;;;;2216567;58;2414;-23
2024/02/22 15:48:01;;;;;;;;;;;;;;;;;;2217761;58;2482;-24
2024/02/22 15:50:33;;;;;;;;;;;;;;;;;;2218438;66;2535;-24
2024/02/22 15:53:05;;;;;;;;;;;;;;;;;;2220324;66;2363;-23
2024/02/22 15:55:37;;;;;;;;;;;;;;;;;;2219207;58;2843;-24
2024/02/22 15:58:12;;;;;;;;;;;;;;;;;;2218315;58;2394;-24
2024/02/22 16:00:44;;;;;;;;;;;;;;;;;;2220732;66;2298;-23
2024/02/22 16:03:14;;;;;;;;;;;;;;;;;;2219611;58;2141;-24
2024/02/22 16:05:51;;;;;;;;;;;;;;;;;;2220303;58;3049;-24
2024/02/22 16:08:23;;;;;;;;;;;;;;;;;;2219572;66;3351;-24
2024/02/22 16:10:57;;;;;;;;;;;;;;;;;;2220422;66;2547;-24
2024/02/22 16:13:29;;;;;;;;;;;;;;;;;;2219596;58;2227;-24
2024/02/22 16:16:00;;;;;;;;;;;;;;;;;;2218300;66;2263;-24
2024/02/22 16:18:31;;;;;;;;;;;;;;;;;;2219959;58;3095;-23
2024/02/22 16:21:06;;;;;;;;;;;;;;;;;;2219702;66;2643;-23
2024/02/22 16:23:37;;;;;;;;;;;;;;;;;;2218728;58;2789;-24
2024/02/22 16:26:07;;;;;;;;;;;;;;;;;;2218743;58;2488;-24
2024/02/22 16:28:38;;;;;;;;;;;;;;;;;;2214697;59;2900;-24
2024/02/22 16:31:11;;;;;;;;;;;;;;;;;;2216376;58;2228;-24
2024/02/22 16:33:42;;;;;;;;;;;;;;;;;;2220646;58;2249;-24
2024/02/22 16:36:15;;;;;;;;;;;;;;;;;;2219041;59;2760;-23
2024/02/22 16:38:51;;;;;;;;;;;;;;;;;;2221009;58;2198;-25
2024/02/22 16:41:29;;;;;;;;;;;;;;;;;;2216943;58;2300;-24
2024/02/22 16:43:59;;;;;;;;;;;;;;;;;;2219264;66;3017;-25
2024/02/22 16:46:30;;;;;;;;;;;;;;;;;;2218292;58;2479;-24
2024/02/22 16:49:00;;;;;;;;;;;;;;;;;;2219979;66;2102;-24
2024/02/22 16:51:36;;;;;;;;;;;;;;;;;;2220203;58;2186;-24
2024/02/22 16:54:07;;;;;;;;;;;;;;;;;;2219806;66;2498;-23
2024/02/22 16:56:43;;;;;;;;;;;;;;;;;;2221407;66;1601;-25
2024/02/22 16:59:13;;;;;;;;;;;;;;;;;;2219952;58;2389;-24
2024/02/22 17:01:44;;;;;;;;;;;;;;;;;;2221397;66;1954;-24
2024/02/22 17:04:14;;;;;;;;;;;;;;;;;;2220472;58;2590;-25
2024/02/22 17:06:58;;;;;;;;;;;;;;;;;;2217009;59;2700;-25
2024/02/22 17:09:28;;;;;;;;;;;;;;;;;;2217340;58;2218;-24
2024/02/22 17:11:59;;;;;;;;;;;;;;;;;;2217247;66;2659;-24
2024/02/22 17:14:29;;;;;;;;;;;;;;;;;;2220397;58;2607;-24
2024/02/22 17:17:00;;;;;;;;;;;;;;;;;;2219588;58;2492;-24
2024/02/22 17:19:36;;;;;;;;;;;;;;;;;;2220921;66;2396;-24
2024/02/22 17:22:06;;;;;;;;;;;;;;;;;;2215777;63;2874;-24
2024/02/22 17:24:43;;;;;;;;;;;;;;;;;;2220953;66;2709;-25
2024/02/22 17:27:13;;;;;;;;;;;;;;;;;;2219664;66;2312;-24
2024/02/22 17:29:45;;;;;;;;;;;;;;;;;;2220552;66;2353;-24
2024/02/22 17:32:17;;;;;;;;;;;;;;;;;;2216136;66;2518;-24
2024/02/22 17:34:48;;;;;;;;;;;;;;;;;;2220611;58;2828;-24